Time;durP1;ratioP1;P1;durP2;ratioP2;P2;SDS_P1;SDS_P2;PMS_P1;PMS_P2;Temp;Humidity;BMP_temperature;BMP_pressure;BME280_temperature;BME280_humidity;BME280_pressure;Samples;Min_cycle;Max_cycle;Signal;HPM_P1;HPM_P2
2023/01/19 00:01:19;;;;;;;13.52;10.45;;;11.00;99.90;;;;;;5053962;28;20566;-73
2023/01/19 00:03:44;;;;;;;9.65;8.65;;;10.90;99.90;;;;;;5054019;28;20032;-64
2023/01/19 00:06:11;;;;;;;10.82;8.98;;;10.90;99.90;;;;;;5054023;28;20071;-69
2023/01/19 00:08:36;;;;;;;10.68;8.98;;;10.90;99.90;;;;;;5054166;28;20017;-66
2023/01/19 00:11:03;;;;;;;8.48;6.80;;;11.00;99.90;;;;;;5053813;28;20581;-64
2023/01/19 00:13:28;;;;;;;10.88;8.48;;;11.10;99.90;;;;;;5054139;28;20451;-69
2023/01/19 00:15:54;;;;;;;9.82;7.47;;;11.20;99.90;;;;;;5054158;28;20111;-69
2023/01/19 00:18:20;;;;;;;14.30;10.02;;;11.20;99.90;;;;;;5053871;28;20075;-63
2023/01/19 00:20:46;;;;;;;13.70;9.30;;;11.30;99.90;;;;;;5053869;28;20029;-65
2023/01/19 00:23:12;;;;;;;19.83;14.13;;;11.20;99.90;;;;;;5053640;28;20017;-64
2023/01/19 00:25:41;;;;;;;16.92;12.73;;;11.10;99.90;;;;;;5053626;28;20382;-70
2023/01/19 00:28:08;;;;;;;17.65;11.80;;;11.00;99.90;;;;;;5053519;28;20095;-65
2023/01/19 00:30:33;;;;;;;17.70;12.85;;;11.00;99.90;;;;;;5053497;28;20025;-61
2023/01/19 00:32:59;;;;;;;15.38;10.80;;;10.90;99.90;;;;;;5053669;28;20028;-66
2023/01/19 00:35:25;;;;;;;14.63;10.25;;;10.70;99.90;;;;;;5053722;28;20032;-71
2023/01/19 00:37:50;;;;;;;13.88;9.65;;;10.80;99.90;;;;;;5053363;28;20143;-69
2023/01/19 00:40:17;;;;;;;10.88;8.27;;;10.70;99.90;;;;;;5053508;28;20467;-64
2023/01/19 00:42:47;;;;;;;10.90;8.18;;;10.70;99.90;;;;;;5053730;28;20108;-68
2023/01/19 00:45:18;;;;;;;10.18;7.43;;;10.60;99.90;;;;;;5053844;28;20029;-69
2023/01/19 00:47:46;;;;;;;10.32;7.05;;;10.70;99.90;;;;;;5053099;28;20033;-63
2023/01/19 00:50:15;;;;;;;8.52;6.22;;;10.70;99.90;;;;;;5053847;28;20025;-69
2023/01/19 00:52:42;;;;;;;10.00;7.05;;;10.90;99.90;;;;;;5053260;28;20025;-72
2023/01/19 00:55:10;;;;;;;7.53;5.85;;;10.90;99.90;;;;;;5053477;28;20459;-66
2023/01/19 00:57:36;;;;;;;10.13;6.95;;;10.90;99.90;;;;;;5053223;28;20391;-62
2023/01/19 01:00:10;;;;;;;26.52;18.83;;;10.90;99.90;;;;;;5053279;28;20025;-67
2023/01/19 01:02:40;;;;;;;39.13;24.52;;;10.90;99.90;;;;;;5053146;28;20074;-65
2023/01/19 01:05:06;;;;;;;29.42;21.08;;;10.70;99.90;;;;;;5053084;28;20030;-66
2023/01/19 01:07:43;;;;;;;23.98;17.88;;;10.60;99.90;;;;;;5053861;28;20036;-69
2023/01/19 01:10:18;;;;;;;26.48;20.20;;;10.40;99.90;;;;;;5056415;28;20033;-64
2023/01/19 01:12:44;;;;;;;22.70;16.75;;;10.40;99.90;;;;;;5057463;28;20028;-62
2023/01/19 01:15:11;;;;;;;20.65;14.75;;;10.40;99.90;;;;;;5057112;28;20116;-66
2023/01/19 01:17:45;;;;;;;22.67;17.13;;;10.50;99.90;;;;;;5057161;28;20029;-65
2023/01/19 01:20:15;;;;;;;22.17;16.10;;;10.70;99.90;;;;;;5056868;28;20017;-68
2023/01/19 01:22:44;;;;;;;21.27;15.23;;;10.70;99.90;;;;;;5056861;28;20029;-69
2023/01/19 01:25:11;;;;;;;19.20;14.15;;;10.80;99.90;;;;;;5057124;28;20391;-65
2023/01/19 01:27:37;;;;;;;17.73;11.63;;;10.80;99.90;;;;;;5056672;28;20045;-72
2023/01/19 01:30:04;;;;;;;18.67;14.05;;;10.80;99.90;;;;;;5056622;28;20025;-69
2023/01/19 01:32:29;;;;;;;16.73;12.40;;;10.50;99.90;;;;;;5056840;28;20025;-68
2023/01/19 01:34:55;;;;;;;14.80;11.55;;;10.30;99.90;;;;;;5056965;28;20035;-62
2023/01/19 01:37:21;;;;;;;14.10;10.93;;;10.30;99.90;;;;;;5056704;28;20029;-59
2023/01/19 01:39:46;;;;;;;14.98;10.60;;;10.30;99.90;;;;;;5056469;28;20021;-70
2023/01/19 01:42:16;;;;;;;25.23;18.30;;;10.50;99.90;;;;;;5056494;28;20025;-63
2023/01/19 01:44:54;;;;;;;22.25;16.80;;;10.40;99.90;;;;;;5056383;28;20021;-63
2023/01/19 01:47:43;;;;;;;15.65;11.95;;;10.30;99.90;;;;;;5056300;28;20029;-68
2023/01/19 01:50:21;;;;;;;14.57;11.15;;;10.20;99.90;;;;;;5056300;28;20017;-64
2023/01/19 01:53:10;;;;;;;13.57;10.13;;;10.40;99.90;;;;;;5056320;28;20548;-68
2023/01/19 01:55:40;;;;;;;13.45;10.25;;;10.50;99.90;;;;;;5056356;28;20020;-65
2023/01/19 01:58:08;;;;;;;11.10;8.85;;;10.50;99.90;;;;;;5056349;28;20029;-71
2023/01/19 02:03:22;;;;;;;9.85;7.68;;;10.50;99.90;;;;;;5056637;28;20516;-67
2023/01/19 02:05:48;;;;;;;10.60;7.88;;;10.60;99.90;;;;;;5056461;28;20029;-74
2023/01/19 02:14:11;;;;;;;24.17;16.65;;;10.70;99.90;;;;;;5055782;28;20433;-70
2023/01/19 02:16:37;;;;;;;23.60;17.42;;;10.40;99.90;;;;;;5055902;28;20030;-69
2023/01/19 02:19:05;;;;;;;30.35;21.90;;;10.40;99.90;;;;;;5056024;28;20390;-61
2023/01/19 02:22:00;;;;;;;32.05;24.63;;;10.50;99.90;;;;;;5055808;28;20028;-66
2023/01/19 02:24:28;;;;;;;30.80;22.65;;;10.50;99.90;;;;;;5055617;28;20029;-70
2023/01/19 02:26:55;;;;;;;23.42;18.88;;;10.50;99.90;;;;;;5055443;28;20045;-61
2023/01/19 02:29:23;;;;;;;25.50;18.33;;;10.50;99.90;;;;;;5055340;28;20071;-62
2023/01/19 02:31:51;;;;;;;20.25;15.65;;;10.40;99.90;;;;;;5055452;28;20657;-66
2023/01/19 02:34:19;;;;;;;16.17;13.57;;;10.30;99.90;;;;;;5055454;28;20383;-65
2023/01/19 02:36:57;;;;;;;16.73;11.98;;;10.40;99.90;;;;;;5055521;28;20115;-63
2023/01/19 02:39:35;;;;;;;14.23;10.93;;;10.50;99.90;;;;;;5055548;28;20021;-68
2023/01/19 02:42:12;;;;;;;17.23;12.70;;;10.40;99.90;;;;;;5055487;28;20025;-69
2023/01/19 02:44:40;;;;;;;16.05;11.88;;;10.30;99.90;;;;;;5055658;28;20105;-72
2023/01/19 02:47:06;;;;;;;23.27;17.08;;;10.30;99.90;;;;;;5055406;28;20071;-73
2023/01/19 02:49:32;;;;;;;16.73;13.15;;;10.30;99.90;;;;;;5055259;28;20052;-66
2023/01/19 02:51:59;;;;;;;59.00;38.17;;;10.20;99.90;;;;;;5055634;28;20105;-65
2023/01/19 02:55:10;;;;;;;25.98;18.48;;;10.10;99.90;;;;;;5055304;28;20040;-66
2023/01/19 02:57:51;;;;;;;17.40;13.32;;;9.90;99.90;;;;;;5054465;28;20045;-69
2023/01/19 03:00:31;;;;;;;16.35;11.88;;;9.90;99.90;;;;;;5055038;28;20021;-60
2023/01/19 03:03:12;;;;;;;13.40;10.75;;;9.70;99.90;;;;;;5055153;28;20032;-62
2023/01/19 03:06:07;;;;;;;21.80;17.08;;;9.70;99.90;;;;;;5054827;28;20025;-67
2023/01/19 03:09:28;;;;;;;18.92;14.30;;;9.70;99.90;;;;;;5054777;28;20033;-65
2023/01/19 03:12:14;;;;;;;14.50;11.88;;;9.80;99.90;;;;;;5041810;28;20054;-63
2023/01/19 03:14:46;;;;;;;13.32;9.80;;;10.00;99.90;;;;;;5054695;28;20045;-68
2023/01/19 03:17:15;;;;;;;12.23;9.52;;;10.20;99.90;;;;;;5054784;28;20029;-61
2023/01/19 03:19:45;;;;;;;11.02;8.77;;;10.30;99.90;;;;;;5054865;28;20021;-62
2023/01/19 03:22:15;;;;;;;11.07;8.93;;;10.40;99.90;;;;;;5054623;28;20475;-66
2023/01/19 03:24:44;;;;;;;9.45;8.23;;;10.30;99.90;;;;;;5054480;28;20029;-71
2023/01/19 03:27:16;;;;;;;9.82;8.13;;;10.20;99.90;;;;;;5053897;28;20487;-64
2023/01/19 03:29:47;;;;;;;14.57;10.98;;;10.20;99.90;;;;;;5054647;28;20083;-63
2023/01/19 03:32:16;;;;;;;13.57;10.45;;;10.30;99.90;;;;;;5053619;28;20421;-69
2023/01/19 03:34:45;;;;;;;11.02;8.90;;;10.30;99.90;;;;;;5054324;28;20017;-71
2023/01/19 03:37:13;;;;;;;15.15;11.30;;;10.30;99.90;;;;;;5054597;28;20043;-64
2023/01/19 03:39:39;;;;;;;12.68;9.52;;;10.40;99.90;;;;;;5054425;28;20013;-62
2023/01/19 03:42:09;;;;;;;11.93;9.68;;;10.40;99.90;;;;;;5054355;28;20092;-68
2023/01/19 03:44:39;;;;;;;11.18;8.68;;;10.30;99.90;;;;;;5054257;28;20082;-64
2023/01/19 03:47:07;;;;;;;11.77;9.10;;;10.40;99.90;;;;;;5054309;28;20036;-72
2023/01/19 03:49:35;;;;;;;9.48;7.20;;;10.40;99.90;;;;;;5054436;28;20075;-67
2023/01/19 03:52:01;;;;;;;8.23;6.93;;;10.30;99.90;;;;;;5054307;28;20021;-68
2023/01/19 03:54:27;;;;;;;10.35;9.23;;;10.30;99.90;;;;;;5054060;28;20028;-66
2023/01/19 03:56:52;;;;;;;13.77;11.93;;;10.30;99.90;;;;;;5053815;28;20438;-72
2023/01/19 03:59:20;;;;;;;10.25;8.75;;;10.20;99.90;;;;;;5054073;28;20021;-64
2023/01/19 04:01:46;;;;;;;8.68;7.55;;;10.10;99.90;;;;;;5054090;28;20028;-68
2023/01/19 04:04:12;;;;;;;8.55;7.50;;;10.20;99.90;;;;;;5053963;28;20021;-66
2023/01/19 04:06:38;;;;;;;11.73;9.25;;;10.20;99.90;;;;;;5054185;28;20139;-71
2023/01/19 04:09:04;;;;;;;9.93;7.82;;;10.20;99.90;;;;;;5054151;28;20104;-74
2023/01/19 04:11:30;;;;;;;9.73;7.93;;;10.20;99.90;;;;;;5053600;28;20021;-67
2023/01/19 04:13:57;;;;;;;9.57;8.10;;;10.10;99.90;;;;;;5053600;28;20021;-72
2023/01/19 04:16:22;;;;;;;12.27;9.98;;;10.10;99.90;;;;;;5053627;28;20031;-70
2023/01/19 04:18:49;;;;;;;9.13;7.63;;;10.10;99.90;;;;;;5053804;28;20108;-62
2023/01/19 04:21:15;;;;;;;10.70;8.95;;;10.00;99.90;;;;;;5053841;28;20013;-71
2023/01/19 04:23:43;;;;;;;9.10;8.00;;;10.00;99.90;;;;;;5053539;28;20025;-61
2023/01/19 04:26:09;;;;;;;14.68;12.10;;;10.10;99.90;;;;;;5053196;28;20075;-68
2023/01/19 04:28:38;;;;;;;66.10;32.47;;;10.00;99.90;;;;;;5053881;28;20056;-66
2023/01/19 04:31:05;;;;;;;39.70;23.65;;;9.70;99.90;;;;;;5053418;28;20021;-71
2023/01/19 04:33:31;;;;;;;30.33;20.02;;;9.50;99.90;;;;;;5053429;28;20494;-71
2023/01/19 04:35:57;;;;;;;46.03;28.45;;;9.50;99.90;;;;;;5053440;28;20029;-66
2023/01/19 04:38:24;;;;;;;36.00;23.02;;;9.60;99.90;;;;;;5053584;28;20021;-68
2023/01/19 04:40:51;;;;;;;32.50;21.92;;;9.60;99.90;;;;;;5053594;28;20077;-69
2023/01/19 04:43:18;;;;;;;33.60;22.23;;;9.70;99.90;;;;;;5054928;28;20048;-66
2023/01/19 04:45:44;;;;;;;42.17;26.75;;;9.80;99.90;;;;;;5057774;28;20379;-69
2023/01/19 04:48:11;;;;;;;31.92;22.15;;;9.80;99.90;;;;;;5057385;28;20100;-68
2023/01/19 04:50:37;;;;;;;35.15;23.88;;;9.80;99.90;;;;;;5057426;28;20078;-69
2023/01/19 04:53:03;;;;;;;27.45;19.85;;;9.70;99.90;;;;;;5057328;28;20029;-72
2023/01/19 04:55:28;;;;;;;27.85;19.35;;;9.60;99.90;;;;;;5057258;28;20021;-67
2023/01/19 04:57:54;;;;;;;29.52;21.20;;;9.50;99.90;;;;;;5057460;28;20096;-68
2023/01/19 05:00:21;;;;;;;22.52;17.33;;;9.40;99.90;;;;;;5057611;28;20021;-65
2023/01/19 05:02:46;;;;;;;27.10;19.00;;;9.30;99.90;;;;;;5057423;28;20442;-69
2023/01/19 05:05:12;;;;;;;32.38;21.17;;;9.30;99.90;;;;;;5057374;28;20045;-70
2023/01/19 05:07:38;;;;;;;28.27;20.27;;;9.30;99.90;;;;;;5056981;28;20036;-66
2023/01/19 05:10:05;;;;;;;36.75;24.98;;;9.30;99.90;;;;;;5057552;28;20035;-71
2023/01/19 05:12:31;;;;;;;34.45;23.88;;;9.30;99.90;;;;;;5057015;28;20494;-66
2023/01/19 05:14:56;;;;;;;25.83;19.85;;;9.20;99.90;;;;;;5056984;28;20017;-66
2023/01/19 05:17:22;;;;;;;34.42;24.90;;;9.10;99.90;;;;;;5056910;28;20040;-72
2023/01/19 05:19:48;;;;;;;30.17;23.67;;;8.90;99.90;;;;;;5056776;28;20435;-64
2023/01/19 05:22:14;;;;;;;28.75;21.42;;;8.90;99.90;;;;;;5056877;28;20024;-66
2023/01/19 05:24:39;;;;;;;29.85;22.13;;;8.90;99.90;;;;;;5057121;28;20379;-69
2023/01/19 05:27:05;;;;;;;40.85;27.42;;;9.00;99.90;;;;;;5056419;28;20045;-71
2023/01/19 05:29:31;;;;;;;44.75;28.80;;;9.10;99.90;;;;;;5056808;28;20061;-65
2023/01/19 05:31:57;;;;;;;38.85;27.33;;;9.10;99.90;;;;;;5056679;28;20063;-69
2023/01/19 05:34:23;;;;;;;45.10;28.90;;;9.10;99.90;;;;;;5056829;28;20013;-66
2023/01/19 05:36:48;;;;;;;44.75;30.85;;;9.20;99.90;;;;;;5056180;28;20107;-63
2023/01/19 05:39:14;;;;;;;45.83;30.75;;;9.20;99.90;;;;;;5056681;28;20020;-66
2023/01/19 05:41:46;;;;;;;48.00;31.05;;;9.30;99.90;;;;;;5056733;28;20116;-68
2023/01/19 05:44:12;;;;;;;34.85;26.20;;;9.30;99.90;;;;;;5056418;28;20053;-66
2023/01/19 05:46:39;;;;;;;34.53;26.00;;;9.30;99.90;;;;;;5056685;28;20505;-65
2023/01/19 05:49:06;;;;;;;42.53;29.42;;;9.50;99.90;;;;;;5056347;28;20021;-68
2023/01/19 05:51:36;;;;;;;38.72;28.52;;;9.60;99.90;;;;;;5056073;28;20032;-66
2023/01/19 05:54:06;;;;;;;32.30;24.85;;;9.60;99.90;;;;;;5056198;28;20028;-68
2023/01/19 05:56:33;;;;;;;38.85;26.83;;;9.60;99.90;;;;;;5055708;28;20028;-63
2023/01/19 05:58:59;;;;;;;40.58;29.30;;;9.70;99.90;;;;;;5056000;28;20017;-71
2023/01/19 06:01:25;;;;;;;46.05;30.92;;;9.70;99.90;;;;;;5055762;28;20048;-64
2023/01/19 06:03:51;;;;;;;47.70;33.33;;;9.70;99.90;;;;;;5054861;28;20029;-66
2023/01/19 06:06:17;;;;;;;43.10;31.50;;;9.60;99.90;;;;;;5055293;28;20025;-68
2023/01/19 06:08:43;;;;;;;49.25;33.90;;;9.60;99.90;;;;;;5055607;28;20090;-65
2023/01/19 06:11:10;;;;;;;41.55;29.52;;;9.50;99.90;;;;;;5055191;28;20502;-65
2023/01/19 06:13:35;;;;;;;44.28;29.25;;;9.40;99.90;;;;;;5055175;28;20039;-63
2023/01/19 06:16:02;;;;;;;40.85;28.88;;;9.10;99.90;;;;;;5055748;28;20024;-63
2023/01/19 06:18:28;;;;;;;35.95;26.83;;;9.00;99.90;;;;;;5055291;28;20040;-65
2023/01/19 06:20:57;;;;;;;37.28;25.67;;;8.90;99.90;;;;;;5054768;28;20107;-63
2023/01/19 06:23:29;;;;;;;29.25;20.63;;;8.90;99.90;;;;;;5054524;28;20029;-60
2023/01/19 06:25:55;;;;;;;33.50;22.42;;;8.80;99.90;;;;;;5055337;28;20021;-66
2023/01/19 06:28:21;;;;;;;29.48;20.33;;;8.80;99.90;;;;;;5054145;28;20049;-66
2023/01/19 06:30:51;;;;;;;30.30;22.15;;;8.80;99.90;;;;;;5055418;28;20126;-66
2023/01/19 06:33:17;;;;;;;32.00;22.50;;;8.80;99.90;;;;;;5055129;28;20017;-60
2023/01/19 06:35:48;;;;;;;29.58;21.63;;;8.90;99.90;;;;;;5054710;28;20053;-63
2023/01/19 06:38:15;;;;;;;29.77;21.50;;;8.90;99.90;;;;;;5054787;28;20104;-63
2023/01/19 06:40:42;;;;;;;28.80;20.10;;;9.00;99.90;;;;;;5054981;28;20031;-65
2023/01/19 06:43:07;;;;;;;31.50;21.00;;;8.90;99.90;;;;;;5054328;28;20021;-64
2023/01/19 06:45:33;;;;;;;25.55;18.73;;;8.90;99.90;;;;;;5054485;28;20028;-61
2023/01/19 06:47:59;;;;;;;26.08;17.98;;;8.90;99.90;;;;;;5054910;28;20052;-63
2023/01/19 06:50:25;;;;;;;26.27;18.10;;;9.00;99.90;;;;;;5054469;28;20186;-63
2023/01/19 06:52:51;;;;;;;23.85;17.20;;;9.20;99.90;;;;;;5054434;28;20501;-67
2023/01/19 06:55:17;;;;;;;25.20;16.85;;;9.20;99.90;;;;;;5054709;28;20025;-61
2023/01/19 06:57:43;;;;;;;21.30;16.17;;;9.40;99.90;;;;;;5054603;28;20036;-65
2023/01/19 07:00:11;;;;;;;19.65;14.73;;;9.60;99.90;;;;;;5053815;28;20032;-64
2023/01/19 07:02:45;;;;;;;16.50;12.98;;;9.80;99.90;;;;;;5054532;28;20025;-68
2023/01/19 07:05:13;;;;;;;19.40;14.57;;;9.90;99.90;;;;;;5052457;28;20092;-66
2023/01/19 07:07:41;;;;;;;16.15;12.38;;;10.10;99.90;;;;;;5051129;28;20033;-64
2023/01/19 07:10:08;;;;;;;15.40;11.88;;;10.20;99.90;;;;;;5053713;28;20475;-58
2023/01/19 07:12:34;;;;;;;15.68;12.60;;;10.30;99.90;;;;;;5052815;28;20421;-63
2023/01/19 07:15:00;;;;;;;19.02;12.85;;;10.40;99.90;;;;;;5053586;28;20029;-66
2023/01/19 07:17:25;;;;;;;18.10;13.80;;;10.40;99.90;;;;;;5035002;28;20081;-62
2023/01/19 07:19:51;;;;;;;25.30;17.15;;;10.40;99.90;;;;;;5034095;28;20025;-65
2023/01/19 07:22:17;;;;;;;28.50;20.25;;;10.40;99.90;;;;;;5034440;28;20021;-66
2023/01/19 07:24:43;;;;;;;23.30;17.55;;;10.40;99.90;;;;;;5033483;28;20021;-65
2023/01/19 07:27:10;;;;;;;26.33;19.70;;;10.40;99.90;;;;;;5033795;28;20064;-65
2023/01/19 07:29:36;;;;;;;23.92;19.45;;;10.40;99.90;;;;;;5034309;28;20055;-62
2023/01/19 07:32:02;;;;;;;33.38;25.95;;;10.40;99.90;;;;;;5033698;28;20025;-66
2023/01/19 07:34:28;;;;;;;33.28;27.35;;;10.50;99.90;;;;;;5032731;28;20365;-60
2023/01/19 07:36:55;;;;;;;48.53;34.13;;;10.50;99.90;;;;;;5034032;28;20108;-68
2023/01/19 07:39:20;;;;;;;52.80;34.53;;;10.50;99.90;;;;;;5034004;28;20091;-61
2023/01/19 07:41:49;;;;;;;39.78;30.10;;;10.50;99.90;;;;;;5032957;28;20472;-63
2023/01/19 07:44:15;;;;;;;39.95;30.48;;;10.50;99.90;;;;;;5033918;28;20036;-67
2023/01/19 07:46:40;;;;;;;37.78;30.73;;;10.60;99.90;;;;;;5033629;28;20029;-60
2023/01/19 07:49:07;;;;;;;58.97;43.33;;;10.70;99.90;;;;;;5033933;28;20060;-69
2023/01/19 07:51:32;;;;;;;50.78;38.75;;;10.70;99.90;;;;;;5032875;28;20075;-60
2023/01/19 07:53:58;;;;;;;52.72;40.72;;;10.70;99.90;;;;;;5033362;28;20025;-62
2023/01/19 07:56:26;;;;;;;66.32;46.72;;;10.70;99.90;;;;;;5032868;28;20025;-66
2023/01/19 07:58:52;;;;;;;60.67;44.83;;;10.70;99.90;;;;;;5033614;28;20037;-64
2023/01/19 08:01:17;;;;;;;58.00;40.63;;;10.70;99.90;;;;;;5032433;28;20067;-65
2023/01/19 08:03:43;;;;;;;46.72;35.88;;;10.60;99.90;;;;;;5039684;28;20409;-66
2023/01/19 08:06:23;;;;;;;42.15;32.53;;;10.60;99.90;;;;;;5041298;28;20486;-63
2023/01/19 08:08:49;;;;;;;43.28;32.95;;;10.70;99.90;;;;;;5037640;28;20030;-69
2023/01/19 08:11:15;;;;;;;42.42;31.48;;;10.70;99.90;;;;;;5042818;28;20103;-61
2023/01/19 08:13:42;;;;;;;30.05;22.55;;;10.60;99.90;;;;;;5053593;28;20021;-66
2023/01/19 08:16:08;;;;;;;27.10;20.52;;;10.50;99.90;;;;;;5053220;28;20108;-60
2023/01/19 08:18:33;;;;;;;25.45;18.95;;;10.40;99.90;;;;;;5046750;28;20104;-65
2023/01/19 08:20:59;;;;;;;21.05;16.95;;;10.30;99.90;;;;;;5052938;28;20028;-66
2023/01/19 08:23:26;;;;;;;21.55;18.42;;;10.20;99.90;;;;;;5052162;28;20573;-62
2023/01/19 08:25:52;;;;;;;19.92;16.13;;;10.00;99.90;;;;;;5053141;28;20122;-64
2023/01/19 08:28:20;;;;;;;33.33;24.35;;;10.00;99.90;;;;;;5052579;28;20060;-65
2023/01/19 08:30:52;;;;;;;67.55;48.42;;;9.90;99.90;;;;;;5052822;28;20053;-63
2023/01/19 08:33:19;;;;;;;88.38;52.13;;;9.50;99.90;;;;;;5052075;28;20108;-62
2023/01/19 08:35:50;;;;;;;70.10;44.35;;;9.30;99.90;;;;;;5050075;28;20028;-69
2023/01/19 08:38:16;;;;;;;50.75;28.48;;;9.20;99.90;;;;;;5050345;28;20027;-66
2023/01/19 08:40:42;;;;;;;50.60;29.83;;;9.20;99.90;;;;;;5050367;28;20489;-63
2023/01/19 08:43:10;;;;;;;41.30;27.63;;;9.30;99.90;;;;;;5050788;28;20021;-65
2023/01/19 08:45:40;;;;;;;38.13;26.20;;;9.60;99.90;;;;;;5049589;28;20557;-62
2023/01/19 08:48:06;;;;;;;52.88;33.47;;;10.30;99.90;;;;;;5050575;28;20068;-63
2023/01/19 08:50:33;;;;;;;37.78;27.77;;;11.00;99.90;;;;;;5052932;28;20344;-66
2023/01/19 08:53:00;;;;;;;44.88;31.42;;;11.20;99.90;;;;;;5051435;28;20021;-66
2023/01/19 08:55:28;;;;;;;41.80;30.25;;;11.60;99.90;;;;;;5051226;28;20048;-65
2023/01/19 08:57:58;;;;;;;35.47;27.08;;;11.90;99.90;;;;;;5052063;28;20772;-65
2023/01/19 09:00:25;;;;;;;33.97;24.90;;;12.20;99.90;;;;;;5036433;28;20033;-65
2023/01/19 09:02:52;;;;;;;30.27;22.23;;;13.10;99.90;;;;;;5030833;28;20045;-63
2023/01/19 09:05:18;;;;;;;27.77;20.85;;;13.40;99.90;;;;;;5030717;28;20045;-62
2023/01/19 09:07:48;;;;;;;22.27;18.20;;;13.30;99.90;;;;;;5031355;28;20124;-66
2023/01/19 09:10:15;;;;;;;20.63;16.92;;;13.20;99.90;;;;;;5031926;28;20086;-62
2023/01/19 09:12:42;;;;;;;21.60;16.50;;;13.20;99.90;;;;;;5032282;28;20049;-61
2023/01/19 09:15:09;;;;;;;24.75;17.90;;;13.00;99.90;;;;;;5032538;28;20028;-67
2023/01/19 09:17:35;;;;;;;24.08;17.75;;;12.70;99.90;;;;;;5030751;28;20076;-63
2023/01/19 09:20:01;;;;;;;28.17;21.45;;;12.50;99.90;;;;;;5030825;28;20029;-62
2023/01/19 09:22:27;;;;;;;26.63;20.38;;;12.10;99.90;;;;;;5031512;28;20460;-65
2023/01/19 09:24:53;;;;;;;40.35;25.60;;;11.90;99.90;;;;;;5031274;28;20072;-62
2023/01/19 09:27:18;;;;;;;34.58;24.45;;;11.80;99.90;;;;;;5031960;28;20050;-67
2023/01/19 09:29:51;;;;;;;40.22;26.73;;;11.70;99.90;;;;;;5032240;28;20014;-66
2023/01/19 09:32:18;;;;;;;48.42;33.22;;;11.50;99.90;;;;;;5034225;28;20067;-66
2023/01/19 09:34:44;;;;;;;40.92;27.98;;;11.30;99.90;;;;;;5034050;28;20032;-62
2023/01/19 09:37:10;;;;;;;42.75;25.10;;;11.30;99.90;;;;;;5034603;28;20486;-65
2023/01/19 09:39:35;;;;;;;34.30;21.60;;;11.20;99.90;;;;;;5034651;28;20076;-61
2023/01/19 09:42:34;;;;;;;25.08;17.80;;;11.10;99.90;;;;;;5033839;28;20022;-66
2023/01/19 09:45:03;;;;;;;14.45;10.90;;;11.10;99.90;;;;;;5035089;28;20479;-65
2023/01/19 09:47:31;;;;;;;9.07;6.43;;;10.80;99.90;;;;;;5038769;28;20041;-63
2023/01/19 09:50:03;;;;;;;5.38;3.97;;;10.50;99.90;;;;;;5037654;28;20033;-64
2023/01/19 09:52:34;;;;;;;4.63;3.47;;;10.20;99.90;;;;;;5042319;28;20463;-59
2023/01/19 09:55:00;;;;;;;2.83;2.38;;;10.20;99.90;;;;;;5037876;28;20164;-69
2023/01/19 09:57:27;;;;;;;4.65;3.00;;;10.10;99.90;;;;;;5040535;28;20531;-68
2023/01/19 09:59:58;;;;;;;7.15;4.07;;;10.20;99.90;;;;;;5038007;28;20060;-65
2023/01/19 10:03:07;;;;;;;3.92;2.78;;;10.00;99.90;;;;;;5053963;28;20467;-61
2023/01/19 10:05:43;;;;;;;3.25;2.50;;;9.80;99.90;;;;;;5049363;28;20411;-61
2023/01/19 10:08:23;;;;;;;3.92;2.50;;;9.90;99.90;;;;;;5040119;28;20052;-61
2023/01/19 10:10:54;;;;;;;3.97;2.53;;;10.00;99.90;;;;;;5037394;28;20383;-61
2023/01/19 10:13:42;;;;;;;2.85;2.55;;;9.90;99.90;;;;;;5055299;28;20063;-64
2023/01/19 10:16:41;;;;;;;7.70;4.88;;;9.90;99.90;;;;;;5055361;28;20028;-65
2023/01/19 10:19:28;;;;;;;8.30;5.97;;;9.90;99.90;;;;;;5055489;28;20048;-67
2023/01/19 10:21:58;;;;;;;9.23;6.80;;;9.80;99.90;;;;;;5047359;28;20475;-60
2023/01/19 10:24:33;;;;;;;9.43;6.38;;;9.80;99.90;;;;;;5052558;28;20100;-62
2023/01/19 10:27:00;;;;;;;6.78;5.20;;;9.80;99.90;;;;;;5038073;28;20140;-64
2023/01/19 10:29:37;;;;;;;6.30;4.53;;;9.70;99.90;;;;;;5045001;28;20060;-67
2023/01/19 10:32:07;;;;;;;4.55;3.67;;;9.70;99.90;;;;;;5053378;28;20100;-67
2023/01/19 10:34:33;;;;;;;3.17;2.85;;;9.60;99.90;;;;;;5046257;28;20036;-63
2023/01/19 10:37:11;;;;;;;6.10;5.18;;;9.60;99.90;;;;;;5055266;28;20491;-63
2023/01/19 10:39:37;;;;;;;5.75;5.15;;;9.30;99.90;;;;;;5039243;28;20022;-62
2023/01/19 10:42:05;;;;;;;6.03;5.43;;;9.40;99.90;;;;;;5035546;28;20033;-67
2023/01/19 10:44:36;;;;;;;5.18;4.68;;;9.40;99.90;;;;;;5033297;28;20025;-65
2023/01/19 10:47:05;;;;;;;5.00;4.50;;;9.60;99.90;;;;;;5034871;28;20040;-65
2023/01/19 10:49:39;;;;;;;4.30;3.80;;;9.60;99.90;;;;;;5049043;28;20430;-65
2023/01/19 10:52:07;;;;;;;3.30;3.00;;;9.70;99.90;;;;;;5049476;28;20052;-65
2023/01/19 10:54:35;;;;;;;2.78;2.55;;;9.60;99.90;;;;;;5033650;28;20065;-66
2023/01/19 10:57:06;;;;;;;2.90;2.60;;;9.40;99.90;;;;;;5038249;28;20037;-67
2023/01/19 10:59:31;;;;;;;2.20;1.80;;;9.50;99.90;;;;;;5038650;28;20484;-63
2023/01/19 11:02:19;;;;;;;2.03;1.70;;;9.40;99.90;;;;;;5035558;28;20025;-67
2023/01/19 11:04:48;;;;;;;2.45;2.03;;;9.40;99.90;;;;;;5057142;28;20060;-63
2023/01/19 11:07:16;;;;;;;1.50;1.40;;;9.60;99.90;;;;;;5039168;28;20029;-66
2023/01/19 11:09:42;;;;;;;1.67;1.58;;;9.90;99.90;;;;;;5048060;28;20068;-67
2023/01/19 11:12:16;;;;;;;2.00;1.80;;;10.10;99.90;;;;;;5040429;28;20057;-63
2023/01/19 11:14:42;;;;;;;1.80;1.60;;;10.20;99.90;;;;;;5035688;28;20034;-64
2023/01/19 11:17:25;;;;;;;1.70;1.52;;;10.30;99.90;;;;;;5034484;28;20056;-63
2023/01/19 11:20:01;;;;;;;1.77;1.67;;;10.40;99.90;;;;;;5038282;28;20371;-63
2023/01/19 11:22:32;;;;;;;2.00;1.73;;;10.40;99.90;;;;;;5050847;28;20025;-64
2023/01/19 11:25:04;;;;;;;2.50;2.30;;;10.50;99.90;;;;;;5054254;28;20040;-69
2023/01/19 11:27:33;;;;;;;6.53;5.35;;;10.60;99.90;;;;;;5046212;28;20052;-64
2023/01/19 11:30:15;;;;;;;6.03;5.35;;;10.70;99.90;;;;;;5046196;28;20029;-68
2023/01/19 11:32:41;;;;;;;5.95;5.35;;;10.60;99.90;;;;;;5034273;28;20032;-67
2023/01/19 11:35:32;;;;;;;5.22;4.72;;;10.50;99.90;;;;;;5038971;28;20029;-64
2023/01/19 11:38:05;;;;;;;4.32;3.92;;;10.60;99.90;;;;;;5054432;28;20433;-63
2023/01/19 11:40:32;;;;;;;3.10;2.90;;;10.60;99.90;;;;;;5053649;28;20112;-66
2023/01/19 11:42:58;;;;;;;3.38;3.08;;;10.60;99.90;;;;;;5035989;28;20039;-65
2023/01/19 11:45:25;;;;;;;2.75;2.55;;;10.70;99.90;;;;;;5033903;28;20029;-62
2023/01/19 11:47:51;;;;;;;3.13;2.78;;;10.60;99.90;;;;;;5033769;28;20035;-65
2023/01/19 11:50:28;;;;;;;5.68;4.25;;;10.60;99.90;;;;;;5031334;28;20025;-69
2023/01/19 11:53:05;;;;;;;3.78;3.42;;;10.70;99.90;;;;;;5042389;28;20027;-66
2023/01/19 11:55:40;;;;;;;2.85;2.53;;;10.50;99.90;;;;;;5045479;28;20103;-66
2023/01/19 11:58:11;;;;;;;3.50;3.20;;;10.30;99.90;;;;;;5049362;28;20029;-66
2023/01/19 12:01:08;;;;;;;2.97;2.78;;;10.30;99.90;;;;;;5048790;28;20452;-62
2023/01/19 12:03:47;;;;;;;3.03;2.60;;;10.30;99.90;;;;;;5049608;28;20041;-69
2023/01/19 12:06:19;;;;;;;3.03;2.40;;;10.20;99.90;;;;;;5051015;28;20028;-69
2023/01/19 12:09:16;;;;;;;1.88;1.75;;;10.30;99.90;;;;;;5052809;28;20060;-67
2023/01/19 12:12:05;;;;;;;1.90;1.60;;;10.50;99.90;;;;;;5052541;28;20040;-68
2023/01/19 12:14:42;;;;;;;1.95;1.33;;;10.60;99.90;;;;;;5053258;28;20025;-63
2023/01/19 12:17:15;;;;;;;1.75;1.50;;;10.50;99.90;;;;;;5053442;28;20033;-70
2023/01/19 12:19:49;;;;;;;1.52;1.42;;;10.50;99.90;;;;;;5053360;28;20429;-67
2023/01/19 12:22:16;;;;;;;3.80;2.70;;;10.50;99.90;;;;;;5053306;28;20029;-67
2023/01/19 12:24:53;;;;;;;2.20;2.00;;;10.60;99.90;;;;;;5044266;28;20079;-67
2023/01/19 12:27:41;;;;;;;3.30;2.70;;;10.50;99.90;;;;;;5058188;28;20506;-72
2023/01/19 12:30:25;;;;;;;3.42;2.30;;;10.40;99.90;;;;;;5038376;28;20064;-68
2023/01/19 12:33:11;;;;;;;2.55;2.20;;;10.30;99.90;;;;;;5042325;28;20064;-66
2023/01/19 12:36:15;;;;;;;2.08;1.85;;;10.40;99.90;;;;;;5040094;28;20014;-66
2023/01/19 12:38:47;;;;;;;2.30;2.00;;;10.40;99.90;;;;;;5030653;28;20021;-69
2023/01/19 12:41:24;;;;;;;2.00;1.60;;;10.40;99.90;;;;;;5042514;28;20069;-70
2023/01/19 12:44:08;;;;;;;3.63;2.78;;;10.30;99.90;;;;;;5051632;28;20021;-67
2023/01/19 12:46:36;;;;;;;2.50;2.30;;;10.20;99.90;;;;;;5052023;28;20021;-68
2023/01/19 12:49:05;;;;;;;1.80;1.70;;;10.20;99.90;;;;;;5051942;28;20174;-66
2023/01/19 12:51:33;;;;;;;1.90;1.63;;;10.10;99.90;;;;;;5052941;28;20025;-68
2023/01/19 12:54:01;;;;;;;1.52;1.42;;;10.00;99.90;;;;;;5051534;28;20028;-66
2023/01/19 12:56:33;;;;;;;1.85;1.50;;;10.10;99.90;;;;;;5051765;28;20029;-68
2023/01/19 12:59:00;;;;;;;1.90;1.30;;;10.00;99.90;;;;;;5052483;28;20167;-69
2023/01/19 13:01:26;;;;;;;1.67;1.58;;;9.90;99.90;;;;;;5051690;28;20036;-63